Time;durP1;ratioP1;P1;durP2;ratioP2;P2;SDS_P1;SDS_P2;PMS_P1;PMS_P2;Temp;Humidity;BMP_temperature;BMP_pressure;BME280_temperature;BME280_humidity;BME280_pressure;Samples;Min_cycle;Max_cycle;Signal;HPM_P1;HPM_P2
2023/07/26 00:00:53;;;;;;;12.30;5.10;;;;;;;29.28;65.29;99480.61;108148;1284;21999;-67
2023/07/26 00:03:19;;;;;;;11.70;4.70;;;;;;;29.24;65.23;99480.85;108086;1281;21983;-62
2023/07/26 00:05:44;;;;;;;10.70;4.30;;;;;;;29.21;65.24;99476.61;108163;1281;21990;-59
2023/07/26 00:08:10;;;;;;;12.70;5.20;;;;;;;29.19;65.72;99475.82;108153;1287;21972;-66
2023/07/26 00:10:35;;;;;;;10.90;4.80;;;;;;;29.17;64.73;99481.63;108123;1287;21996;-59
2023/07/26 00:13:01;;;;;;;15.00;5.60;;;;;;;29.17;65.17;99480.48;108174;1281;21997;-65
2023/07/26 00:15:27;;;;;;;9.90;4.50;;;;;;;29.15;65.32;99477.33;108167;1281;22042;-59
2023/07/26 00:17:53;;;;;;;10.40;4.80;;;;;;;29.09;64.64;99476.63;108106;1287;21994;-59
2023/07/26 00:20:18;;;;;;;9.10;4.10;;;;;;;29.03;65.79;99478.04;108154;1287;21993;-60
2023/07/26 00:22:44;;;;;;;12.30;5.00;;;;;;;29.00;65.03;99478.13;108128;1283;21989;-59
2023/07/26 00:25:09;;;;;;;9.10;4.70;;;;;;;28.97;65.33;99480.65;108109;1277;22000;-60
2023/07/26 00:27:35;;;;;;;9.90;4.30;;;;;;;28.92;65.31;99479.52;108157;1280;21992;-67
2023/07/26 00:30:01;;;;;;;9.10;4.40;;;;;;;28.90;65.64;99476.46;108097;1287;21990;-67
2023/07/26 00:32:26;;;;;;;9.80;4.00;;;;;;;28.88;65.65;99469.13;108115;1287;22017;-66
2023/07/26 00:34:52;;;;;;;9.60;4.40;;;;;;;28.84;66.04;99461.59;108135;1281;21992;-60
2023/07/26 00:37:17;;;;;;;10.60;4.60;;;;;;;28.78;65.81;99458.54;108170;1288;21988;-67
2023/07/26 00:39:43;;;;;;;8.60;4.00;;;;;;;28.77;66.03;99457.38;108096;1287;22157;-59
2023/07/26 00:42:09;;;;;;;10.40;4.70;;;;;;;28.75;66.57;99456.16;108061;1281;21995;-60
2023/07/26 00:44:34;;;;;;;12.40;4.60;;;;;;;28.71;67.12;99460.13;108168;1287;22026;-67
2023/07/26 00:47:00;;;;;;;10.30;4.70;;;;;;;28.68;66.94;99464.77;108187;1279;22027;-67
2023/07/26 00:49:26;;;;;;;9.30;4.80;;;;;;;28.67;66.75;99463.25;107815;1288;21987;-59
2023/07/26 00:51:51;;;;;;;8.40;4.20;;;;;;;28.68;67.74;99463.42;108043;1287;21995;-60
2023/07/26 00:54:19;;;;;;;10.50;4.80;;;;;;;28.65;68.07;99460.39;108022;1284;21992;-59
2023/07/26 00:56:44;;;;;;;9.00;4.30;;;;;;;28.63;67.29;99458.42;108133;1275;21993;-59
2023/07/26 00:59:10;;;;;;;7.80;4.40;;;;;;;28.60;68.44;99450.07;108086;1287;21988;-67
2023/07/26 01:01:36;;;;;;;10.70;4.80;;;;;;;28.57;67.90;99445.34;108072;1284;22002;-67
2023/07/26 01:04:02;;;;;;;11.20;4.80;;;;;;;28.54;68.14;99438.08;108107;1283;22083;-67
2023/07/26 01:06:52;;;;;;;13.70;5.20;;;;;;;28.52;68.10;99436.09;108086;1281;21986;-67
2023/07/26 01:09:25;;;;;;;10.40;4.80;;;;;;;28.52;68.73;99426.89;108103;1286;21982;-67
2023/07/26 01:12:01;;;;;;;8.90;4.80;;;;;;;28.51;68.75;99418.51;108067;1283;21992;-59
2023/07/26 01:14:41;;;;;;;11.60;5.70;;;;;;;28.49;68.46;99410.54;108100;1287;21961;-59
2023/07/26 01:17:07;;;;;;;11.00;4.90;;;;;;;28.46;67.97;99400.48;108058;1277;21986;-67
2023/07/26 01:19:32;;;;;;;11.50;5.00;;;;;;;28.43;68.50;99397.21;108063;1284;21992;-60
2023/07/26 01:21:59;;;;;;;8.20;4.60;;;;;;;28.38;69.12;99390.69;108104;1277;22012;-60
2023/07/26 01:24:24;;;;;;;12.20;5.80;;;;;;;28.33;68.93;99384.47;107976;1277;21995;-68
2023/07/26 01:26:50;;;;;;;9.20;4.60;;;;;;;28.28;69.77;99378.07;108081;1286;21992;-60
2023/07/26 01:29:16;;;;;;;11.70;5.00;;;;;;;28.23;70.84;99377.40;108090;1284;22034;-68
2023/07/26 01:31:41;;;;;;;11.40;5.30;;;;;;;28.16;70.55;99374.11;108040;1284;22027;-67
2023/07/26 01:34:07;;;;;;;10.70;4.60;;;;;;;28.14;70.22;99373.58;107925;1283;21990;-66
2023/07/26 01:36:33;;;;;;;11.70;5.30;;;;;;;28.13;70.53;99373.10;108047;1288;21991;-67
2023/07/26 01:38:59;;;;;;;14.20;4.90;;;;;;;28.13;71.28;99375.73;107858;1286;23769;-67
2023/07/26 01:41:25;;;;;;;13.30;5.50;;;;;;;28.12;71.44;99383.52;108073;1287;22025;-67
2023/07/26 01:43:50;;;;;;;12.60;5.10;;;;;;;28.12;71.08;99391.10;107887;1283;22068;-61
2023/07/26 01:46:16;;;;;;;12.10;5.20;;;;;;;28.13;71.18;99391.36;108102;1282;22464;-68
2023/07/26 01:48:42;;;;;;;11.60;5.20;;;;;;;28.15;71.56;99393.91;108117;1288;21989;-59
2023/07/26 01:51:07;;;;;;;10.40;5.00;;;;;;;28.15;71.23;99394.02;108105;1278;21987;-59
2023/07/26 01:53:33;;;;;;;14.40;6.10;;;;;;;28.16;71.84;99394.09;108099;1283;21998;-59
2023/07/26 01:56:00;;;;;;;17.00;5.40;;;;;;;28.14;72.35;99396.86;108066;1284;22026;-67
2023/07/26 01:58:26;;;;;;;11.20;4.70;;;;;;;28.09;73.79;99396.42;108120;1288;22421;-67
2023/07/26 02:00:52;;;;;;;12.20;5.60;;;;;;;28.03;73.32;99388.16;108062;1280;21996;-59
2023/07/26 02:03:18;;;;;;;11.50;5.00;;;;;;;28.03;73.25;99385.64;108067;1286;21997;-60
2023/07/26 02:05:44;;;;;;;11.00;5.50;;;;;;;28.01;72.91;99380.52;108077;1283;21992;-67
2023/07/26 02:08:10;;;;;;;11.80;5.80;;;;;;;28.02;73.27;99378.09;108075;1277;21984;-67
2023/07/26 02:10:36;;;;;;;11.60;5.20;;;;;;;28.02;73.10;99376.61;108122;1283;21980;-67
2023/07/26 02:13:01;;;;;;;11.90;5.60;;;;;;;28.01;74.24;99375.58;108058;1283;21993;-59
2023/07/26 02:15:27;;;;;;;10.30;5.80;;;;;;;27.99;73.48;99374.32;108041;1283;21998;-67
2023/07/26 02:17:53;;;;;;;10.00;5.20;;;;;;;27.99;75.58;99369.34;108095;1287;22027;-67
2023/07/26 02:20:18;;;;;;;13.00;5.80;;;;;;;27.97;74.18;99367.02;108090;1283;21990;-67
2023/07/26 02:22:44;;;;;;;9.40;5.30;;;;;;;27.96;74.25;99371.05;108058;1283;21989;-68
2023/07/26 02:25:09;;;;;;;10.90;5.70;;;;;;;27.97;74.56;99370.74;108117;1283;21998;-59
2023/07/26 02:27:35;;;;;;;12.10;5.80;;;;;;;27.95;75.83;99369.67;108063;1283;22004;-59
2023/07/26 02:30:01;;;;;;;9.80;5.40;;;;;;;27.93;75.78;99361.95;108063;1277;21994;-67
2023/07/26 02:32:28;;;;;;;12.20;5.80;;;;;;;27.91;77.32;99354.19;108066;1289;21992;-62
2023/07/26 02:34:55;;;;;;;12.00;5.90;;;;;;;27.90;77.38;99358.52;108070;1283;21989;-60
2023/07/26 02:37:20;;;;;;;16.20;7.00;;;;;;;27.92;76.11;99364.64;108155;1287;21990;-59
2023/07/26 02:39:46;;;;;;;13.40;5.90;;;;;;;27.94;76.70;99370.84;108043;1283;22001;-59
2023/07/26 02:42:11;;;;;;;13.20;5.70;;;;;;;27.98;77.07;99378.29;108066;1289;21960;-67
2023/07/26 02:44:37;;;;;;;12.50;5.90;;;;;;;28.01;77.50;99386.30;108067;1277;22013;-66
2023/07/26 02:47:03;;;;;;;10.50;5.70;;;;;;;28.03;77.62;99385.42;108044;1287;21989;-59
2023/07/26 02:49:29;;;;;;;17.10;7.70;;;;;;;28.21;77.27;99380.48;108090;1283;21997;-67
2023/07/26 02:51:54;;;;;;;12.30;5.70;;;;;;;28.21;78.65;99377.35;108095;1287;22455;-67
2023/07/26 02:54:20;;;;;;;11.20;5.90;;;;;;;28.14;78.64;99373.06;108087;1286;22001;-59
2023/07/26 02:56:45;;;;;;;16.80;6.80;;;;;;;28.12;80.75;99366.17;108051;1287;22015;-59
2023/07/26 02:59:11;;;;;;;14.70;6.80;;;;;;;28.14;80.16;99367.52;108045;1289;21990;-67
2023/07/26 03:01:36;;;;;;;13.00;5.60;;;;;;;28.17;79.75;99363.89;108039;1281;21989;-66
2023/07/26 03:04:02;;;;;;;13.70;6.60;;;;;;;28.20;80.82;99358.75;108113;1277;21985;-59
2023/07/26 03:06:28;;;;;;;10.40;5.80;;;;;;;28.23;80.12;99351.98;108084;1286;23654;-60
2023/07/26 03:08:54;;;;;;;10.00;5.70;;;;;;;28.26;80.46;99352.15;108122;1287;21992;-59
2023/07/26 03:11:19;;;;;;;13.20;6.20;;;;;;;28.29;82.33;99350.00;108171;1281;22000;-59
2023/07/26 03:13:45;;;;;;;10.50;5.70;;;;;;;28.37;80.52;99354.52;108073;1288;22024;-66
2023/07/26 03:16:11;;;;;;;14.90;6.90;;;;;;;28.41;81.55;99355.13;108095;1281;21986;-59
2023/07/26 03:18:36;;;;;;;10.10;5.50;;;;;;;28.43;82.53;99351.33;108077;1284;21989;-59
2023/07/26 03:21:02;;;;;;;10.00;6.10;;;;;;;28.46;82.79;99351.20;108229;1284;22020;-68
2023/07/26 03:23:27;;;;;;;11.20;5.60;;;;;;;28.49;82.89;99356.26;108204;1284;23391;-60
2023/07/26 03:25:54;;;;;;;10.40;6.00;;;;;;;28.54;83.41;99360.33;108115;1281;21987;-59
2023/07/26 03:28:20;;;;;;;12.30;6.10;;;;;;;28.58;83.09;99357.35;108124;1281;21985;-60
2023/07/26 03:30:46;;;;;;;9.40;6.00;;;;;;;28.65;82.36;99362.02;108139;1283;21998;-59
2023/07/26 03:33:11;;;;;;;11.90;6.50;;;;;;;28.69;82.68;99366.52;108137;1284;21989;-67
2023/07/26 03:35:37;;;;;;;8.40;5.60;;;;;;;28.76;81.90;99371.88;108129;1281;21990;-68
2023/07/26 03:38:02;;;;;;;12.60;5.80;;;;;;;28.82;83.39;99381.28;108205;1283;22000;-59
2023/07/26 03:40:28;;;;;;;14.20;6.40;;;;;;;28.88;83.45;99380.32;108194;1288;22000;-67
2023/07/26 03:42:54;;;;;;;16.10;6.40;;;;;;;28.90;84.59;99375.11;108190;1274;21989;-69
2023/07/26 03:45:19;;;;;;;11.70;5.60;;;;;;;28.96;84.06;99374.89;108116;1288;24388;-59
2023/07/26 03:47:45;;;;;;;13.10;5.70;;;;;;;29.01;83.91;99372.36;108133;1281;22029;-68
2023/07/26 03:50:10;;;;;;;10.60;5.40;;;;;;;29.07;83.80;99372.84;108120;1283;21986;-59
2023/07/26 03:52:36;;;;;;;10.40;6.00;;;;;;;29.14;83.47;99366.49;108125;1287;21997;-59
2023/07/26 03:55:01;;;;;;;10.00;5.20;;;;;;;29.18;85.69;99366.23;108139;1274;21989;-67
2023/07/26 03:57:27;;;;;;;10.00;5.80;;;;;;;29.26;84.69;99364.38;108144;1281;21992;-68
2023/07/26 03:59:53;;;;;;;13.50;5.70;;;;;;;29.33;85.57;99371.39;108117;1287;21990;-60
2023/07/26 04:02:18;;;;;;;11.50;5.70;;;;;;;29.42;84.99;99378.93;108133;1281;21993;-59
2023/07/26 04:04:44;;;;;;;12.70;5.50;;;;;;;29.51;84.78;99385.18;108129;1287;22103;-67
2023/07/26 04:07:09;;;;;;;10.10;5.40;;;;;;;29.57;83.81;99378.55;108114;1287;22043;-60
2023/07/26 04:09:35;;;;;;;10.70;5.50;;;;;;;29.64;84.10;99374.05;108153;1286;22008;-59
2023/07/26 04:12:01;;;;;;;10.90;5.60;;;;;;;29.65;86.09;99372.05;108135;1281;21993;-68
2023/07/26 04:14:26;;;;;;;14.90;5.70;;;;;;;29.72;84.49;99360.88;108095;1288;21988;-67
2023/07/26 04:16:52;;;;;;;11.40;5.80;;;;;;;29.77;84.10;99352.41;108158;1280;21993;-67
2023/07/26 04:19:17;;;;;;;10.10;5.40;;;;;;;29.85;83.47;99350.64;108117;1274;22949;-64
2023/07/26 04:21:43;;;;;;;10.00;5.40;;;;;;;29.99;82.90;99353.81;108130;1287;21999;-59
2023/07/26 04:24:08;;;;;;;10.10;5.60;;;;;;;29.94;83.41;99357.60;108074;1283;21989;-66
2023/07/26 04:26:34;;;;;;;11.70;5.60;;;;;;;29.97;82.99;99356.73;108043;1277;22008;-69
2023/07/26 04:29:00;;;;;;;13.00;5.80;;;;;;;29.98;82.93;99357.87;108203;1281;21988;-67
2023/07/26 04:31:25;;;;;;;13.70;5.80;;;;;;;30.00;83.21;99360.81;108139;1279;21993;-67
2023/07/26 04:33:51;;;;;;;10.30;5.70;;;;;;;30.02;83.32;99358.17;108118;1278;21991;-59
2023/07/26 04:36:16;;;;;;;11.60;5.20;;;;;;;30.04;82.92;99355.41;108083;1288;21997;-68
2023/07/26 04:38:42;;;;;;;14.10;5.80;;;;;;;30.07;82.64;99359.45;108162;1287;22034;-69
2023/07/26 04:41:08;;;;;;;11.30;5.40;;;;;;;30.11;82.89;99353.89;108177;1280;21987;-59
2023/07/26 04:43:34;;;;;;;11.00;5.40;;;;;;;30.18;82.90;99350.11;108120;1286;21995;-67
2023/07/26 04:45:59;;;;;;;12.40;4.90;;;;;;;30.28;82.70;99345.18;108118;1274;21997;-59
2023/07/26 04:48:25;;;;;;;10.00;5.00;;;;;;;30.38;82.28;99340.11;108114;1277;21989;-69
2023/07/26 04:50:50;;;;;;;15.50;5.70;;;;;;;30.44;82.61;99335.25;108197;1281;22052;-59
2023/07/26 04:53:16;;;;;;;13.20;5.40;;;;;;;30.50;82.16;99325.35;108187;1281;21994;-69
2023/07/26 04:55:47;;;;;;;13.50;5.30;;;;;;;30.60;81.34;99313.27;108085;1288;22006;-60
2023/07/26 04:58:13;;;;;;;11.30;5.10;;;;;;;30.70;81.09;99313.53;108153;1287;21987;-61
2023/07/26 05:00:39;;;;;;;9.00;5.30;;;;;;;30.82;80.32;99310.95;108154;1287;21986;-62
2023/07/26 05:03:05;;;;;;;12.40;5.20;;;;;;;30.91;80.35;99310.21;108147;1288;22026;-70
2023/07/26 05:05:32;;;;;;;12.70;5.30;;;;;;;31.00;79.34;99307.52;108151;1288;21992;-70
2023/07/26 05:07:58;;;;;;;9.40;4.90;;;;;;;31.07;78.22;99302.05;108154;1287;21986;-70
2023/07/26 05:10:25;;;;;;;12.70;4.90;;;;;;;31.10;78.64;99300.80;108186;1281;21992;-64
2023/07/26 05:12:51;;;;;;;10.60;4.80;;;;;;;31.17;77.95;99303.51;108190;1287;21997;-61
2023/07/26 05:15:17;;;;;;;14.50;5.50;;;;;;;31.21;77.07;99302.50;108142;1287;21986;-70
2023/07/26 05:17:46;;;;;;;18.50;4.60;;;;;;;31.20;76.51;99303.55;108125;1287;22068;-69
2023/07/26 05:20:12;;;;;;;11.70;4.80;;;;;;;31.20;76.20;99295.00;108129;1287;21987;-60
2023/07/26 05:22:38;;;;;;;14.80;5.10;;;;;;;31.27;76.15;99295.19;108129;1285;22006;-68
2023/07/26 05:25:04;;;;;;;22.00;7.10;;;;;;;31.39;75.65;99305.77;108113;1284;21990;-61
2023/07/26 05:27:30;;;;;;;11.40;4.70;;;;;;;31.50;74.53;99314.54;108186;1286;21990;-61
2023/07/26 05:29:57;;;;;;;24.80;5.70;;;;;;;31.62;74.23;99317.39;108161;1281;21996;-60
2023/07/26 05:32:23;;;;;;;18.50;5.20;;;;;;;31.72;73.83;99320.48;108115;1287;22005;-70
2023/07/26 05:34:54;;;;;;;17.70;6.40;;;;;;;31.75;73.05;99309.81;108139;1281;21995;-60
2023/07/26 05:37:21;;;;;;;16.40;6.00;;;;;;;31.80;72.70;99310.31;108186;1281;22561;-59
2023/07/26 05:39:51;;;;;;;31.40;7.00;;;;;;;31.80;71.00;99313.30;108105;1287;21988;-59
2023/07/26 05:42:16;;;;;;;21.30;5.70;;;;;;;31.89;70.93;99317.59;108081;1284;21992;-68
2023/07/26 05:44:42;;;;;;;25.40;6.30;;;;;;;31.99;70.69;99319.63;108076;1284;21966;-68
2023/07/26 05:47:10;;;;;;;53.10;8.30;;;;;;;32.03;69.37;99312.91;108108;1281;21991;-61
2023/07/26 05:49:38;;;;;;;35.50;6.80;;;;;;;32.09;68.34;99308.27;108127;1281;21990;-68
2023/07/26 05:52:04;;;;;;;27.40;6.10;;;;;;;32.14;68.11;99307.52;108089;1284;22002;-67
2023/07/26 05:54:29;;;;;;;35.60;6.60;;;;;;;32.17;67.82;99305.44;108159;1281;21985;-68
2023/07/26 05:56:55;;;;;;;49.80;8.40;;;;;;;32.20;67.31;99306.64;108086;1287;21988;-59
2023/07/26 05:59:21;;;;;;;36.30;7.10;;;;;;;32.26;67.15;99299.49;108052;1277;21992;-67
2023/07/26 06:01:46;;;;;;;50.70;8.10;;;;;;;32.32;66.76;99300.81;108091;1283;21987;-68
2023/07/26 06:04:12;;;;;;;25.40;6.80;;;;;;;32.39;66.28;99300.16;108074;1277;21982;-68
2023/07/26 06:06:39;;;;;;;37.70;7.40;;;;;;;32.48;64.98;99294.34;108151;1288;21985;-68
2023/07/26 06:09:05;;;;;;;31.00;8.20;;;;;;;32.58;65.71;99305.78;108378;1281;21989;-67
2023/07/26 06:11:31;;;;;;;53.30;9.40;;;;;;;32.72;65.52;99313.71;108242;1281;21990;-67
2023/07/26 06:13:57;;;;;;;46.60;8.70;;;;;;;32.86;65.08;99318.11;108040;1284;22008;-67
2023/07/26 06:16:23;;;;;;;43.40;8.70;;;;;;;32.96;64.03;99312.32;108230;1284;22008;-69
2023/07/26 06:18:49;;;;;;;26.10;6.40;;;;;;;32.96;63.18;99297.23;108241;1287;22002;-60
2023/07/26 06:21:15;;;;;;;42.10;7.10;;;;;;;33.09;63.57;99287.65;108151;1287;21993;-69
2023/07/26 06:23:41;;;;;;;37.40;7.10;;;;;;;33.22;62.98;99281.64;108101;1277;21993;-67
2023/07/26 06:26:06;;;;;;;88.50;12.30;;;;;;;33.32;62.16;99267.55;108096;1284;21987;-61
2023/07/26 06:28:32;;;;;;;39.30;7.90;;;;;;;33.44;61.27;99247.80;108068;1288;22162;-60
2023/07/26 06:30:58;;;;;;;23.60;6.90;;;;;;;33.55;59.93;99210.10;108131;1278;21992;-60
2023/07/26 06:33:23;;;;;;;14.40;6.10;;;;;;;33.64;58.37;99206.05;108115;1278;21979;-71
2023/07/26 06:35:49;;;;;;;63.60;10.00;;;;;;;33.71;58.81;99240.60;108106;1287;21993;-61
2023/07/26 06:38:15;;;;;;;95.70;15.10;;;;;;;33.65;57.81;99231.83;108097;1284;22027;-61
2023/07/26 06:40:40;;;;;;;21.60;7.20;;;;;;;33.52;57.66;99226.52;108122;1287;21993;-69
2023/07/26 06:43:06;;;;;;;15.60;6.00;;;;;;;33.32;57.72;99237.53;108075;1284;21990;-61
2023/07/26 06:45:32;;;;;;;30.40;9.50;;;;;;;33.12;58.31;99249.45;108129;1287;21989;-69
2023/07/26 06:47:58;;;;;;;41.10;11.60;;;;;;;33.04;59.05;99255.91;108229;1287;21997;-62
2023/07/26 06:50:24;;;;;;;37.10;11.00;;;;;;;32.98;59.90;99250.44;108199;1288;21992;-61
2023/07/26 06:52:49;;;;;;;20.40;7.30;;;;;;;33.03;60.68;99245.29;108147;1284;21992;-73
2023/07/26 06:55:15;;;;;;;36.60;9.30;;;;;;;33.24;60.92;99249.02;108129;1274;21993;-72
2023/07/26 06:57:41;;;;;;;77.70;13.80;;;;;;;33.40;59.38;99248.17;108129;1281;23833;-72
2023/07/26 07:00:12;;;;;;;85.70;13.70;;;;;;;33.50;58.61;99250.58;108122;1284;21984;-60
2023/07/26 07:02:39;;;;;;;95.10;12.40;;;;;;;33.61;58.54;99257.27;108016;1288;22024;-70
2023/07/26 07:05:06;;;;;;;95.90;14.40;;;;;;;33.59;58.33;99262.16;108132;1287;21989;-60
2023/07/26 07:07:31;;;;;;;118.50;15.60;;;;;;;33.60;58.82;99264.30;108111;1281;21992;-71
2023/07/26 07:09:57;;;;;;;151.60;16.90;;;;;;;33.72;58.33;99268.65;108136;1277;22467;-61
2023/07/26 07:12:23;;;;;;;94.40;12.50;;;;;;;33.84;58.15;99277.16;108101;1281;21995;-61
2023/07/26 07:14:48;;;;;;;103.40;15.40;;;;;;;33.90;57.83;99281.06;108159;1284;21988;-70
2023/07/26 07:17:14;;;;;;;104.60;15.80;;;;;;;33.91;57.77;99267.93;108159;1287;21987;-71
2023/07/26 07:19:39;;;;;;;122.70;18.10;;;;;;;34.04;57.65;99266.23;108139;1281;22001;-72
2023/07/26 07:22:05;;;;;;;53.30;11.40;;;;;;;34.19;57.75;99273.21;108144;1287;21991;-60
2023/07/26 07:24:33;;;;;;;24.70;7.50;;;;;;;34.34;56.46;99273.17;108101;1278;22027;-70
2023/07/26 07:26:59;;;;;;;91.50;13.70;;;;;;;34.41;55.87;99273.51;108076;1288;21991;-72
2023/07/26 07:29:24;;;;;;;74.40;15.60;;;;;;;34.51;55.60;99274.17;108137;1278;22040;-76
2023/07/26 07:31:50;;;;;;;53.40;10.90;;;;;;;34.42;54.13;99281.38;108104;1287;23615;-62
2023/07/26 07:34:15;;;;;;;59.70;10.90;;;;;;;34.22;53.33;99291.55;108135;1277;22083;-70
2023/07/26 07:36:41;;;;;;;67.30;13.10;;;;;;;34.30;54.40;99294.36;108082;1288;22009;-60
2023/07/26 07:39:09;;;;;;;86.10;12.40;;;;;;;34.35;53.01;99289.90;108113;1287;21991;-60
2023/07/26 07:41:38;;;;;;;60.00;10.90;;;;;;;34.46;53.28;99286.33;108158;1281;21992;-60
2023/07/26 07:44:04;;;;;;;44.30;9.10;;;;;;;34.64;53.05;99288.10;108150;1278;22033;-60
2023/07/26 07:46:30;;;;;;;50.40;9.60;;;;;;;34.82;52.90;99283.17;108137;1281;21998;-62
2023/07/26 07:48:56;;;;;;;45.20;9.20;;;;;;;35.05;52.43;99277.55;108127;1281;21998;-61
2023/07/26 07:51:22;;;;;;;47.70;9.20;;;;;;;35.11;51.06;99288.50;108171;1284;22455;-61
2023/07/26 07:53:48;;;;;;;73.60;11.10;;;;;;;35.12;50.73;99296.92;108175;1278;21995;-71
2023/07/26 07:56:14;;;;;;;47.00;8.30;;;;;;;35.19;51.38;99291.48;108138;1287;21987;-60
2023/07/26 07:58:39;;;;;;;27.30;6.60;;;;;;;35.30;51.69;99288.98;108129;1287;22455;-67
2023/07/26 08:01:05;;;;;;;58.80;10.20;;;;;;;35.47;51.18;99289.73;108247;1287;21996;-70
2023/07/26 08:03:31;;;;;;;37.20;8.00;;;;;;;35.68;50.21;99293.92;108091;1286;22014;-62
2023/07/26 08:05:57;;;;;;;47.60;9.10;;;;;;;35.70;49.35;99294.14;108096;1281;22250;-71
2023/07/26 08:08:23;;;;;;;47.10;9.30;;;;;;;35.81;49.73;99289.23;108067;1287;21995;-70
2023/07/26 08:10:49;;;;;;;22.10;6.60;;;;;;;35.88;49.33;99285.06;108101;1288;21992;-61
2023/07/26 08:13:15;;;;;;;18.70;6.00;;;;;;;35.97;48.46;99284.48;108126;1281;21987;-60
2023/07/26 08:15:41;;;;;;;30.20;7.60;;;;;;;36.10;48.10;99285.92;108107;1287;21990;-69
2023/07/26 08:18:06;;;;;;;69.90;10.90;;;;;;;36.26;47.83;99281.80;108126;1277;21989;-59
2023/07/26 08:20:33;;;;;;;32.10;7.10;;;;;;;36.38;47.71;99274.27;108078;1281;22017;-59
2023/07/26 08:23:00;;;;;;;54.50;9.00;;;;;;;36.54;47.23;99264.46;108106;1287;21989;-60
2023/07/26 08:25:26;;;;;;;16.90;5.60;;;;;;;36.58;46.83;99262.34;108102;1278;21993;-59
2023/07/26 08:27:51;;;;;;;70.50;11.80;;;;;;;36.64;46.37;99260.41;108061;1278;21994;-67
2023/07/26 08:30:17;;;;;;;19.60;8.00;;;;;;;36.65;44.85;99257.55;108081;1281;21999;-69
2023/07/26 08:32:42;;;;;;;24.00;6.80;;;;;;;36.74;45.57;99249.38;108090;1277;22046;-68
2023/07/26 08:35:08;;;;;;;67.80;9.20;;;;;;;36.74;44.10;99249.52;108066;1284;21997;-59
2023/07/26 08:37:34;;;;;;;50.50;8.70;;;;;;;36.76;44.27;99243.51;108087;1281;21998;-61
2023/07/26 08:40:00;;;;;;;16.50;6.00;;;;;;;36.80;44.07;99238.01;108076;1287;22462;-59
2023/07/26 08:42:26;;;;;;;26.50;6.00;;;;;;;37.10;42.94;99238.27;108281;1281;21989;-61
2023/07/26 08:44:53;;;;;;;21.20;7.20;;;;;;;36.97;43.14;99240.87;107985;1288;22752;-62
2023/07/26 08:47:22;;;;;;;15.70;5.00;;;;;;;37.04;43.99;99246.41;108070;1277;22000;-69
2023/07/26 08:49:49;;;;;;;19.90;6.30;;;;;;;37.00;42.94;99240.65;108743;1279;22037;-70
2023/07/26 08:52:16;;;;;;;23.80;5.80;;;;;;;36.92;42.08;99239.90;108129;1287;22000;-61
2023/07/26 08:54:43;;;;;;;75.00;12.20;;;;;;;36.82;41.91;99250.37;108164;1281;22048;-69
2023/07/26 08:57:08;;;;;;;131.70;16.90;;;;;;;36.63;42.24;99252.36;108136;1288;21994;-62
2023/07/26 08:59:34;;;;;;;43.10;8.40;;;;;;;36.45;41.69;99252.84;108091;1286;22003;-62
2023/07/26 09:02:01;;;;;;;20.20;7.10;;;;;;;36.21;41.57;99252.16;108051;1284;21987;-69
2023/07/26 09:04:26;;;;;;;55.00;8.40;;;;;;;36.10;41.56;99252.43;108166;1288;22465;-62
2023/07/26 09:06:52;;;;;;;58.90;8.90;;;;;;;36.10;41.17;99250.41;108073;1288;21986;-61
2023/07/26 09:09:18;;;;;;;43.60;7.50;;;;;;;36.12;40.58;99251.71;108118;1284;21988;-62
2023/07/26 09:11:50;;;;;;;32.40;8.20;;;;;;;36.11;40.58;99249.73;108071;1287;21994;-71
2023/07/26 09:14:16;;;;;;;78.80;10.70;;;;;;;36.08;41.27;99259.09;108124;1288;21994;-70
2023/07/26 09:16:41;;;;;;;45.80;9.50;;;;;;;36.08;41.43;99262.91;108156;1281;22586;-69
2023/07/26 09:19:09;;;;;;;150.90;17.70;;;;;;;36.09;41.10;99261.23;108084;1279;21990;-71
2023/07/26 09:21:36;;;;;;;82.50;10.30;;;;;;;36.08;40.85;99268.78;108133;1288;21990;-62
2023/07/26 09:24:03;;;;;;;100.10;14.20;;;;;;;36.14;40.63;99264.92;108191;1288;21987;-68
2023/07/26 09:26:34;;;;;;;123.10;15.00;;;;;;;36.33;39.84;99262.95;108145;1281;22458;-69
2023/07/26 09:29:00;;;;;;;64.50;13.20;;;;;;;36.43;40.14;99255.52;108186;1281;21991;-61
2023/07/26 09:31:32;;;;;;;73.40;11.80;;;;;;;36.63;39.14;99254.60;108110;1281;22101;-72
2023/07/26 09:34:01;;;;;;;108.90;15.20;;;;;;;36.78;38.74;99249.34;108141;1288;21996;-61
2023/07/26 09:36:41;;;;;;;55.30;9.40;;;;;;;36.94;39.52;99251.09;108169;1287;21977;-68
2023/07/26 09:39:08;;;;;;;95.70;13.40;;;;;;;36.89;39.15;99245.04;107978;1284;22023;-68
2023/07/26 09:41:33;;;;;;;93.20;13.30;;;;;;;37.04;38.02;99244.71;108201;1288;21990;-69
2023/07/26 09:43:59;;;;;;;54.30;8.10;;;;;;;37.04;38.42;99251.17;108027;1274;22006;-61
2023/07/26 09:46:25;;;;;;;19.70;6.20;;;;;;;36.92;38.57;99246.55;108173;1284;21994;-71
2023/07/26 09:49:01;;;;;;;114.50;15.90;;;;;;;36.59;39.82;99242.83;108084;1288;21990;-62
2023/07/26 09:51:30;;;;;;;89.70;12.90;;;;;;;36.63;39.53;99247.56;108232;1278;21992;-62
2023/07/26 09:53:59;;;;;;;44.60;8.70;;;;;;;36.71;39.36;99240.87;108107;1281;22003;-65
2023/07/26 09:56:25;;;;;;;26.00;7.90;;;;;;;36.66;39.53;99244.21;108130;1281;21993;-62
2023/07/26 09:58:51;;;;;;;109.10;13.30;;;;;;;36.51;39.15;99251.53;108135;1281;21995;-69
2023/07/26 10:01:18;;;;;;;143.90;18.80;;;;;;;36.48;39.78;99259.47;108123;1287;21992;-69
2023/07/26 10:03:45;;;;;;;74.00;11.90;;;;;;;36.35;39.73;99262.89;108149;1287;21990;-69
2023/07/26 10:06:12;;;;;;;59.00;9.80;;;;;;;36.30;39.92;99254.19;108168;1274;21979;-70
2023/07/26 10:08:41;;;;;;;51.20;10.20;;;;;;;36.30;40.42;99255.98;108102;1287;21992;-61
2023/07/26 10:11:06;;;;;;;26.80;7.00;;;;;;;36.40;40.39;99259.17;107854;1288;21989;-61
2023/07/26 10:13:32;;;;;;;98.20;12.40;;;;;;;36.38;39.46;99259.80;107820;1283;21980;-62
2023/07/26 10:15:58;;;;;;;108.30;14.80;;;;;;;36.44;39.73;99254.27;108070;1287;22009;-61
2023/07/26 10:18:24;;;;;;;107.70;15.20;;;;;;;36.44;39.14;99256.08;108273;1288;21999;-61
2023/07/26 10:20:50;;;;;;;63.50;9.70;;;;;;;36.43;39.19;99247.79;108232;1285;21994;-60
2023/07/26 10:23:16;;;;;;;81.70;11.20;;;;;;;36.35;39.01;99248.45;107833;1288;21989;-62
2023/07/26 10:25:41;;;;;;;62.90;10.60;;;;;;;36.28;39.54;99254.48;107866;1288;22008;-60
2023/07/26 10:28:07;;;;;;;71.80;11.20;;;;;;;36.30;39.49;99255.45;108061;1278;21989;-69
2023/07/26 10:30:32;;;;;;;96.90;13.90;;;;;;;36.35;39.25;99254.39;108115;1278;21992;-70
2023/07/26 10:32:59;;;;;;;86.30;13.60;;;;;;;36.41;39.21;99256.80;108054;1284;21989;-70
2023/07/26 10:35:32;;;;;;;50.90;9.40;;;;;;;36.49;39.14;99248.65;108075;1288;22002;-70
2023/07/26 10:37:59;;;;;;;23.00;6.50;;;;;;;36.54;38.80;99247.69;108255;1288;22046;-69
2023/07/26 10:40:38;;;;;;;17.10;6.40;;;;;;;36.46;37.94;99255.63;108179;1287;21998;-68
2023/07/26 10:43:39;;;;;;;54.20;8.30;;;;;;;36.30;37.89;99252.63;108153;1288;22000;-61
2023/07/26 10:46:13;;;;;;;39.00;7.40;;;;;;;36.30;38.73;99249.68;108142;1288;21992;-68
2023/07/26 10:48:40;;;;;;;93.50;12.80;;;;;;;36.38;38.35;99252.44;108118;1288;21990;-68
2023/07/26 10:51:25;;;;;;;84.40;11.20;;;;;;;36.41;37.96;99249.74;108100;1281;21991;-61
2023/07/26 10:53:53;;;;;;;93.50;13.50;;;;;;;36.47;37.82;99246.89;108163;1288;21995;-70
2023/07/26 10:56:24;;;;;;;51.70;10.40;;;;;;;36.64;37.50;99240.55;108229;1288;22009;-62
2023/07/26 10:58:53;;;;;;;63.40;11.70;;;;;;;36.79;37.00;99233.83;108119;1281;21995;-61
2023/07/26 11:01:30;;;;;;;69.00;11.70;;;;;;;36.98;37.60;99231.27;108683;1284;21973;-68
2023/07/26 11:03:57;;;;;;;19.40;6.50;;;;;;;37.14;37.10;99226.61;108196;1288;21991;-68
2023/07/26 11:06:51;;;;;;;29.00;7.70;;;;;;;37.20;36.64;99220.52;108104;1284;22007;-70
2023/07/26 11:09:27;;;;;;;76.80;11.70;;;;;;;37.18;36.40;99218.90;108076;1284;21992;-63
2023/07/26 11:12:02;;;;;;;55.80;9.50;;;;;;;37.05;35.86;99208.30;108074;1278;22029;-69